Enter the Airport ICAO Code

Search by Airport or City

Current Weather

SARE | Resistencia International Airport

Resistencia, Chaco, Argentina

Last Update 50 Minutes Ago

Light Rain

Temperature of 10 ºC

Light to Moderate Winds from South

Temperature

10 ºC

Dew Point Temperature

08 ºC

Relative Humidity

87.42 %

Wind Direction

South (170º, Ranging from 150º to 210º)

Wind Velocity

9 km/h (05 kt)

Gusts

None

Visibility

Greater than 10 Kilometers

Sea Level Pressure

1022 hPa (Hectopascals)

Layers of Clouds

30% to 60% of Sky Covered from 1219 mts (4000 ft) Above Ground Level.

90% to 100% of Sky Covered from 1524 mts (5000 ft) Above Ground Level.

METAR SARE 191100Z 17005KT 150V210 9999 -RA SCT040 OVC050 10/08 Q1022

Weather Forecast

SARE | Resistencia International Airport

Resistencia, Chaco, Argentina

Forecast valid for the next 24 Hours

From now on it is expected:

Light Rain

Light to Moderate Winds from SouthWest

Maximum Temperature

17 ºC in 7 Hours

Minimum Temperature

09 ºC in 22 Hours

TAF SARE 191100Z 1912/2012 21005KT 8000 -RA BKN040 TX17/1919Z TN09/2010Z BECMG 1914/1916 9999 NSW PROB40 2008/2012 1500 BR NSC